Terminal Aerodrome Forecast
Issued by NWS

Home | Current Version | Previous Version | Text Only | Print | Product List | Glossary On
Versions: 1 2 3 4 5 6 7 8 9 10 11 12 13
000
FTUS43 KDTX 050520
TAFDET
TAF
KDET 050520Z 0506/0606 01005KT P6SM SCT014 OVC060
     FM050800 36010KT P6SM SCT100 BKN200
     FM051600 36013G20KT P6SM BKN050
     FM052200 36011G19KT P6SM SCT060
     FM060100 35006KT P6SM SKC=

USA.gov is the U.S. government's official web portal to all federal, state and local government web resources and services.